Terminal Aerodrome Forecast
Issued by NWS

Home | Current Version | Previous Version | Text Only | Print | Product List | Glossary On
Versions: 1 2 3 4 5 6 7 8 9 10 11 12 13 14 15 16 17 18 19
000
FTUS45 KTFX 042343
TAFHVR
TAF
KHVR 042343Z 0500/0524 21009KT P6SM VCSH OVC060
     FM050100 30012G22KT P6SM BKN050
      TEMPO 0501/0505 4SM -SN OVC015
     FM050500 33012KT P6SM VCSH OVC020
     FM051200 32011KT P6SM OVC015
     FM051800 31012KT P6SM BKN035=

USA.gov is the U.S. government's official web portal to all federal, state and local government web resources and services.